sensor_id;sensor_type;location;lat;lon;timestamp;P1;durP1;ratioP1;P2;durP2;ratioP2
29934;SDS011;19905;53.370;-6.314;2023-06-24T00:00:49;10.70;;;3.03;;
29934;SDS011;19905;53.370;-6.314;2023-06-24T00:03:19;12.30;;;2.88;;
29934;SDS011;19905;53.370;-6.314;2023-06-24T00:05:47;8.77;;;2.50;;
29934;SDS011;19905;53.370;-6.314;2023-06-24T00:08:17;10.93;;;3.15;;
29934;SDS011;19905;53.370;-6.314;2023-06-24T00:10:47;11.48;;;2.90;;
29934;SDS011;19905;53.370;-6.314;2023-06-24T00:13:16;5.85;;;2.22;;
29934;SDS011;19905;53.370;-6.314;2023-06-24T00:15:44;7.32;;;2.53;;
29934;SDS011;19905;53.370;-6.314;2023-06-24T00:18:15;9.38;;;2.67;;
29934;SDS011;19905;53.370;-6.314;2023-06-24T00:20:44;7.03;;;2.65;;
29934;SDS011;19905;53.370;-6.314;2023-06-24T00:23:12;6.80;;;2.80;;
29934;SDS011;19905;53.370;-6.314;2023-06-24T00:25:44;6.88;;;2.80;;
29934;SDS011;19905;53.370;-6.314;2023-06-24T00:28:13;11.23;;;3.10;;
29934;SDS011;19905;53.370;-6.314;2023-06-24T00:30:41;9.07;;;3.03;;
29934;SDS011;19905;53.370;-6.314;2023-06-24T00:33:10;9.90;;;3.15;;
29934;SDS011;19905;53.370;-6.314;2023-06-24T00:35:42;11.15;;;3.22;;
29934;SDS011;19905;53.370;-6.314;2023-06-24T00:38:11;10.75;;;3.25;;
29934;SDS011;19905;53.370;-6.314;2023-06-24T00:40:40;7.90;;;2.92;;
29934;SDS011;19905;53.370;-6.314;2023-06-24T00:43:08;7.07;;;2.83;;
29934;SDS011;19905;53.370;-6.314;2023-06-24T00:45:37;8.73;;;3.03;;
29934;SDS011;19905;53.370;-6.314;2023-06-24T00:48:07;12.38;;;3.13;;
29934;SDS011;19905;53.370;-6.314;2023-06-24T00:50:36;9.50;;;3.00;;
29934;SDS011;19905;53.370;-6.314;2023-06-24T00:53:10;10.07;;;3.20;;
29934;SDS011;19905;53.370;-6.314;2023-06-24T00:55:39;9.68;;;2.95;;
29934;SDS011;19905;53.370;-6.314;2023-06-24T00:58:08;9.75;;;2.55;;
29934;SDS011;19905;53.370;-6.314;2023-06-24T01:00:37;9.32;;;3.35;;
29934;SDS011;19905;53.370;-6.314;2023-06-24T01:03:06;8.13;;;3.03;;
29934;SDS011;19905;53.370;-6.314;2023-06-24T01:05:35;8.77;;;3.20;;
29934;SDS011;19905;53.370;-6.314;2023-06-24T01:08:04;9.13;;;3.00;;
29934;SDS011;19905;53.370;-6.314;2023-06-24T01:10:34;10.48;;;3.08;;
29934;SDS011;19905;53.370;-6.314;2023-06-24T01:13:03;13.95;;;3.58;;
29934;SDS011;19905;53.370;-6.314;2023-06-24T01:15:32;16.58;;;4.22;;
29934;SDS011;19905;53.370;-6.314;2023-06-24T01:18:02;13.80;;;3.92;;
29934;SDS011;19905;53.370;-6.314;2023-06-24T01:20:40;11.57;;;3.78;;
29934;SDS011;19905;53.370;-6.314;2023-06-24T01:23:20;13.00;;;4.03;;
29934;SDS011;19905;53.370;-6.314;2023-06-24T01:26:20;11.27;;;3.80;;
29934;SDS011;19905;53.370;-6.314;2023-06-24T01:32:06;16.00;;;4.13;;
29934;SDS011;19905;53.370;-6.314;2023-06-24T01:34:40;16.88;;;3.75;;
29934;SDS011;19905;53.370;-6.314;2023-06-24T01:37:16;13.27;;;3.90;;
29934;SDS011;19905;53.370;-6.314;2023-06-24T01:39:49;12.77;;;3.78;;
29934;SDS011;19905;53.370;-6.314;2023-06-24T01:42:22;13.70;;;3.90;;
29934;SDS011;19905;53.370;-6.314;2023-06-24T01:44:51;11.77;;;3.92;;
29934;SDS011;19905;53.370;-6.314;2023-06-24T01:47:23;14.73;;;4.25;;
29934;SDS011;19905;53.370;-6.314;2023-06-24T01:49:54;11.32;;;3.80;;
29934;SDS011;19905;53.370;-6.314;2023-06-24T01:52:28;12.65;;;4.45;;
29934;SDS011;19905;53.370;-6.314;2023-06-24T01:54:58;14.95;;;4.13;;
29934;SDS011;19905;53.370;-6.314;2023-06-24T01:57:28;9.95;;;3.70;;
29934;SDS011;19905;53.370;-6.314;2023-06-24T01:59:57;12.50;;;3.80;;
29934;SDS011;19905;53.370;-6.314;2023-06-24T02:02:30;10.32;;;3.53;;
29934;SDS011;19905;53.370;-6.314;2023-06-24T02:05:00;13.90;;;3.67;;
29934;SDS011;19905;53.370;-6.314;2023-06-24T02:07:30;14.05;;;3.92;;
29934;SDS011;19905;53.370;-6.314;2023-06-24T02:10:00;11.55;;;3.95;;
29934;SDS011;19905;53.370;-6.314;2023-06-24T02:12:30;10.18;;;3.70;;
29934;SDS011;19905;53.370;-6.314;2023-06-24T02:15:00;9.93;;;3.53;;
29934;SDS011;19905;53.370;-6.314;2023-06-24T02:17:35;11.00;;;3.50;;
29934;SDS011;19905;53.370;-6.314;2023-06-24T02:20:06;11.50;;;3.85;;
29934;SDS011;19905;53.370;-6.314;2023-06-24T02:22:37;12.02;;;3.80;;
29934;SDS011;19905;53.370;-6.314;2023-06-24T02:25:08;10.45;;;3.70;;
29934;SDS011;19905;53.370;-6.314;2023-06-24T02:27:37;14.40;;;3.70;;
29934;SDS011;19905;53.370;-6.314;2023-06-24T02:30:06;11.20;;;3.90;;
29934;SDS011;19905;53.370;-6.314;2023-06-24T02:32:38;13.32;;;3.83;;
29934;SDS011;19905;53.370;-6.314;2023-06-24T02:35:07;11.85;;;3.90;;
29934;SDS011;19905;53.370;-6.314;2023-06-24T02:37:36;11.77;;;3.83;;
29934;SDS011;19905;53.370;-6.314;2023-06-24T02:40:06;7.90;;;3.58;;
29934;SDS011;19905;53.370;-6.314;2023-06-24T02:42:36;11.43;;;3.90;;
29934;SDS011;19905;53.370;-6.314;2023-06-24T02:45:05;9.63;;;3.72;;
29934;SDS011;19905;53.370;-6.314;2023-06-24T02:47:35;10.18;;;3.70;;
29934;SDS011;19905;53.370;-6.314;2023-06-24T02:50:06;11.95;;;3.78;;
29934;SDS011;19905;53.370;-6.314;2023-06-24T02:52:36;11.70;;;3.63;;
29934;SDS011;19905;53.370;-6.314;2023-06-24T02:55:06;8.77;;;3.83;;
29934;SDS011;19905;53.370;-6.314;2023-06-24T02:57:36;10.30;;;3.97;;
29934;SDS011;19905;53.370;-6.314;2023-06-24T03:00:06;11.07;;;3.92;;
29934;SDS011;19905;53.370;-6.314;2023-06-24T03:02:39;11.32;;;4.20;;
29934;SDS011;19905;53.370;-6.314;2023-06-24T03:05:10;11.13;;;3.80;;
29934;SDS011;19905;53.370;-6.314;2023-06-24T03:07:39;9.73;;;3.83;;
29934;SDS011;19905;53.370;-6.314;2023-06-24T03:10:09;11.38;;;4.13;;
29934;SDS011;19905;53.370;-6.314;2023-06-24T03:12:38;12.13;;;3.95;;
29934;SDS011;19905;53.370;-6.314;2023-06-24T03:15:07;10.82;;;3.80;;
29934;SDS011;19905;53.370;-6.314;2023-06-24T03:17:36;9.95;;;3.95;;
29934;SDS011;19905;53.370;-6.314;2023-06-24T03:20:06;9.75;;;3.22;;
29934;SDS011;19905;53.370;-6.314;2023-06-24T03:22:37;10.57;;;3.42;;
29934;SDS011;19905;53.370;-6.314;2023-06-24T03:25:06;6.68;;;3.10;;
29934;SDS011;19905;53.370;-6.314;2023-06-24T03:27:35;12.65;;;3.60;;
29934;SDS011;19905;53.370;-6.314;2023-06-24T03:30:04;7.97;;;3.05;;
29934;SDS011;19905;53.370;-6.314;2023-06-24T03:32:33;10.82;;;3.28;;
29934;SDS011;19905;53.370;-6.314;2023-06-24T03:35:03;10.30;;;3.47;;
29934;SDS011;19905;53.370;-6.314;2023-06-24T03:37:34;8.77;;;3.25;;
29934;SDS011;19905;53.370;-6.314;2023-06-24T03:40:04;8.73;;;2.90;;
29934;SDS011;19905;53.370;-6.314;2023-06-24T03:42:35;10.77;;;3.00;;
29934;SDS011;19905;53.370;-6.314;2023-06-24T03:45:04;9.13;;;3.15;;
29934;SDS011;19905;53.370;-6.314;2023-06-24T03:47:33;11.05;;;3.05;;
29934;SDS011;19905;53.370;-6.314;2023-06-24T03:50:02;9.65;;;2.90;;
29934;SDS011;19905;53.370;-6.314;2023-06-24T03:52:30;9.90;;;3.13;;
29934;SDS011;19905;53.370;-6.314;2023-06-24T03:54:59;8.82;;;3.08;;
29934;SDS011;19905;53.370;-6.314;2023-06-24T03:57:32;6.82;;;3.13;;
29934;SDS011;19905;53.370;-6.314;2023-06-24T04:00:01;9.73;;;3.35;;
29934;SDS011;19905;53.370;-6.314;2023-06-24T04:02:34;8.85;;;2.92;;
29934;SDS011;19905;53.370;-6.314;2023-06-24T04:05:03;6.93;;;2.92;;
29934;SDS011;19905;53.370;-6.314;2023-06-24T04:07:33;9.20;;;3.00;;
29934;SDS011;19905;53.370;-6.314;2023-06-24T04:10:02;7.85;;;2.60;;
29934;SDS011;19905;53.370;-6.314;2023-06-24T04:12:36;7.45;;;3.20;;
29934;SDS011;19905;53.370;-6.314;2023-06-24T04:15:05;8.02;;;3.00;;
29934;SDS011;19905;53.370;-6.314;2023-06-24T04:17:35;7.30;;;3.25;;
29934;SDS011;19905;53.370;-6.314;2023-06-24T04:20:05;8.75;;;2.95;;
29934;SDS011;19905;53.370;-6.314;2023-06-24T04:22:36;7.55;;;2.90;;
29934;SDS011;19905;53.370;-6.314;2023-06-24T04:25:06;10.00;;;2.83;;
29934;SDS011;19905;53.370;-6.314;2023-06-24T04:27:37;9.90;;;3.00;;
29934;SDS011;19905;53.370;-6.314;2023-06-24T04:30:06;7.28;;;2.92;;
29934;SDS011;19905;53.370;-6.314;2023-06-24T04:32:35;8.13;;;3.10;;
29934;SDS011;19905;53.370;-6.314;2023-06-24T04:35:04;9.90;;;3.22;;
29934;SDS011;19905;53.370;-6.314;2023-06-24T04:37:33;9.55;;;3.13;;
29934;SDS011;19905;53.370;-6.314;2023-06-24T04:40:01;10.00;;;3.03;;
29934;SDS011;19905;53.370;-6.314;2023-06-24T04:42:31;6.57;;;3.33;;
29934;SDS011;19905;53.370;-6.314;2023-06-24T04:45:01;7.13;;;2.80;;
29934;SDS011;19905;53.370;-6.314;2023-06-24T04:47:32;10.20;;;3.33;;
29934;SDS011;19905;53.370;-6.314;2023-06-24T04:50:00;9.38;;;3.30;;
29934;SDS011;19905;53.370;-6.314;2023-06-24T04:52:29;8.60;;;3.00;;
29934;SDS011;19905;53.370;-6.314;2023-06-24T04:54:58;5.45;;;3.03;;
29934;SDS011;19905;53.370;-6.314;2023-06-24T04:57:27;10.05;;;3.30;;
29934;SDS011;19905;53.370;-6.314;2023-06-24T04:59:57;7.50;;;2.80;;
29934;SDS011;19905;53.370;-6.314;2023-06-24T05:02:28;10.55;;;3.30;;
29934;SDS011;19905;53.370;-6.314;2023-06-24T05:04:57;8.85;;;3.10;;
29934;SDS011;19905;53.370;-6.314;2023-06-24T05:07:26;4.30;;;2.30;;
29934;SDS011;19905;53.370;-6.314;2023-06-24T05:09:54;5.40;;;2.50;;
29934;SDS011;19905;53.370;-6.314;2023-06-24T05:12:23;8.40;;;2.92;;
29934;SDS011;19905;53.370;-6.314;2023-06-24T05:14:54;9.40;;;3.00;;
29934;SDS011;19905;53.370;-6.314;2023-06-24T05:17:23;7.80;;;2.85;;
29934;SDS011;19905;53.370;-6.314;2023-06-24T05:19:53;8.02;;;3.00;;
29934;SDS011;19905;53.370;-6.314;2023-06-24T05:22:22;6.55;;;2.67;;
29934;SDS011;19905;53.370;-6.314;2023-06-24T05:24:50;9.43;;;2.90;;
29934;SDS011;19905;53.370;-6.314;2023-06-24T05:27:19;6.15;;;3.00;;
29934;SDS011;19905;53.370;-6.314;2023-06-24T05:29:47;9.27;;;2.75;;
29934;SDS011;19905;53.370;-6.314;2023-06-24T05:32:16;7.30;;;2.70;;
29934;SDS011;19905;53.370;-6.314;2023-06-24T05:34:47;7.68;;;2.85;;
29934;SDS011;19905;53.370;-6.314;2023-06-24T05:37:17;5.55;;;2.63;;
29934;SDS011;19905;53.370;-6.314;2023-06-24T05:39:45;8.75;;;2.90;;
29934;SDS011;19905;53.370;-6.314;2023-06-24T05:42:14;6.60;;;2.50;;
29934;SDS011;19905;53.370;-6.314;2023-06-24T05:44:43;12.38;;;3.10;;
29934;SDS011;19905;53.370;-6.314;2023-06-24T05:47:12;9.45;;;2.78;;
29934;SDS011;19905;53.370;-6.314;2023-06-24T05:49:40;7.10;;;3.10;;
29934;SDS011;19905;53.370;-6.314;2023-06-24T05:52:09;9.10;;;3.10;;
29934;SDS011;19905;53.370;-6.314;2023-06-24T05:54:39;6.38;;;2.50;;
29934;SDS011;19905;53.370;-6.314;2023-06-24T05:57:07;9.57;;;2.78;;
29934;SDS011;19905;53.370;-6.314;2023-06-24T05:59:36;6.13;;;2.58;;
29934;SDS011;19905;53.370;-6.314;2023-06-24T06:02:05;7.53;;;3.28;;
29934;SDS011;19905;53.370;-6.314;2023-06-24T06:04:33;9.50;;;3.13;;
29934;SDS011;19905;53.370;-6.314;2023-06-24T06:07:02;7.18;;;2.63;;
29934;SDS011;19905;53.370;-6.314;2023-06-24T06:09:31;5.90;;;2.67;;
29934;SDS011;19905;53.370;-6.314;2023-06-24T06:12:02;8.38;;;2.80;;
29934;SDS011;19905;53.370;-6.314;2023-06-24T06:14:31;8.10;;;2.80;;
29934;SDS011;19905;53.370;-6.314;2023-06-24T06:16:59;9.43;;;3.25;;
29934;SDS011;19905;53.370;-6.314;2023-06-24T06:19:28;8.52;;;2.85;;
29934;SDS011;19905;53.370;-6.314;2023-06-24T06:21:57;8.48;;;3.20;;
29934;SDS011;19905;53.370;-6.314;2023-06-24T06:24:25;11.95;;;3.10;;
29934;SDS011;19905;53.370;-6.314;2023-06-24T06:26:54;8.43;;;2.80;;
29934;SDS011;19905;53.370;-6.314;2023-06-24T06:29:30;7.93;;;2.75;;
29934;SDS011;19905;53.370;-6.314;2023-06-24T06:31:58;7.28;;;2.40;;
29934;SDS011;19905;53.370;-6.314;2023-06-24T06:34:27;9.75;;;2.65;;
29934;SDS011;19905;53.370;-6.314;2023-06-24T06:36:56;9.93;;;3.00;;
29934;SDS011;19905;53.370;-6.314;2023-06-24T06:39:25;9.27;;;2.65;;
29934;SDS011;19905;53.370;-6.314;2023-06-24T06:41:54;7.57;;;2.33;;
29934;SDS011;19905;53.370;-6.314;2023-06-24T06:44:23;7.78;;;2.80;;
29934;SDS011;19905;53.370;-6.314;2023-06-24T06:46:53;10.45;;;3.40;;
29934;SDS011;19905;53.370;-6.314;2023-06-24T06:49:23;10.32;;;3.60;;
29934;SDS011;19905;53.370;-6.314;2023-06-24T06:51:55;7.07;;;2.88;;
29934;SDS011;19905;53.370;-6.314;2023-06-24T06:54:23;10.90;;;3.05;;
29934;SDS011;19905;53.370;-6.314;2023-06-24T06:56:52;9.23;;;2.95;;
29934;SDS011;19905;53.370;-6.314;2023-06-24T06:59:22;11.25;;;3.15;;
29934;SDS011;19905;53.370;-6.314;2023-06-24T07:01:50;10.05;;;3.03;;
29934;SDS011;19905;53.370;-6.314;2023-06-24T07:04:21;7.97;;;3.00;;
29934;SDS011;19905;53.370;-6.314;2023-06-24T07:06:50;8.23;;;2.85;;
29934;SDS011;19905;53.370;-6.314;2023-06-24T07:09:37;10.00;;;2.85;;
29934;SDS011;19905;53.370;-6.314;2023-06-24T07:12:06;8.98;;;2.88;;
29934;SDS011;19905;53.370;-6.314;2023-06-24T07:14:36;10.20;;;2.55;;
29934;SDS011;19905;53.370;-6.314;2023-06-24T07:17:07;7.90;;;2.63;;
29934;SDS011;19905;53.370;-6.314;2023-06-24T07:19:36;9.60;;;2.60;;
29934;SDS011;19905;53.370;-6.314;2023-06-24T07:22:05;6.47;;;2.42;;
29934;SDS011;19905;53.370;-6.314;2023-06-24T07:24:33;7.38;;;2.40;;
29934;SDS011;19905;53.370;-6.314;2023-06-24T07:27:03;9.57;;;2.47;;
29934;SDS011;19905;53.370;-6.314;2023-06-24T07:29:33;7.25;;;2.38;;
29934;SDS011;19905;53.370;-6.314;2023-06-24T07:32:04;8.85;;;2.40;;
29934;SDS011;19905;53.370;-6.314;2023-06-24T07:34:35;12.80;;;2.63;;
29934;SDS011;19905;53.370;-6.314;2023-06-24T07:37:06;6.75;;;2.45;;
29934;SDS011;19905;53.370;-6.314;2023-06-24T07:39:48;5.93;;;2.05;;
29934;SDS011;19905;53.370;-6.314;2023-06-24T07:42:17;8.60;;;2.50;;
29934;SDS011;19905;53.370;-6.314;2023-06-24T07:44:47;7.05;;;2.30;;
29934;SDS011;19905;53.370;-6.314;2023-06-24T07:47:17;10.57;;;2.08;;
29934;SDS011;19905;53.370;-6.314;2023-06-24T07:49:49;6.80;;;2.10;;
29934;SDS011;19905;53.370;-6.314;2023-06-24T07:52:17;9.45;;;2.50;;
29934;SDS011;19905;53.370;-6.314;2023-06-24T07:54:46;6.00;;;1.70;;
29934;SDS011;19905;53.370;-6.314;2023-06-24T07:57:15;6.85;;;2.20;;
29934;SDS011;19905;53.370;-6.314;2023-06-24T07:59:44;8.30;;;2.65;;
29934;SDS011;19905;53.370;-6.314;2023-06-24T08:02:13;8.43;;;2.13;;
29934;SDS011;19905;53.370;-6.314;2023-06-24T08:04:43;5.03;;;1.90;;
29934;SDS011;19905;53.370;-6.314;2023-06-24T08:07:13;9.90;;;2.30;;
29934;SDS011;19905;53.370;-6.314;2023-06-24T08:09:42;6.80;;;1.80;;
29934;SDS011;19905;53.370;-6.314;2023-06-24T08:12:11;11.15;;;2.30;;
29934;SDS011;19905;53.370;-6.314;2023-06-24T08:14:40;6.28;;;2.10;;
29934;SDS011;19905;53.370;-6.314;2023-06-24T08:17:10;6.30;;;2.13;;
29934;SDS011;19905;53.370;-6.314;2023-06-24T08:19:38;7.53;;;2.08;;
29934;SDS011;19905;53.370;-6.314;2023-06-24T08:22:07;6.78;;;2.30;;
29934;SDS011;19905;53.370;-6.314;2023-06-24T08:24:37;9.15;;;2.10;;
29934;SDS011;19905;53.370;-6.314;2023-06-24T08:27:08;6.93;;;2.25;;
29934;SDS011;19905;53.370;-6.314;2023-06-24T08:29:37;6.50;;;2.25;;
29934;SDS011;19905;53.370;-6.314;2023-06-24T08:32:06;7.75;;;2.60;;
29934;SDS011;19905;53.370;-6.314;2023-06-24T08:34:35;6.68;;;2.35;;
29934;SDS011;19905;53.370;-6.314;2023-06-24T08:37:04;8.52;;;2.50;;
29934;SDS011;19905;53.370;-6.314;2023-06-24T08:39:33;9.02;;;2.50;;
29934;SDS011;19905;53.370;-6.314;2023-06-24T08:42:04;11.68;;;2.70;;
29934;SDS011;19905;53.370;-6.314;2023-06-24T08:44:33;7.30;;;2.53;;
29934;SDS011;19905;53.370;-6.314;2023-06-24T08:47:01;10.23;;;2.55;;
29934;SDS011;19905;53.370;-6.314;2023-06-24T08:49:30;7.50;;;2.63;;
29934;SDS011;19905;53.370;-6.314;2023-06-24T08:52:02;7.55;;;2.65;;
29934;SDS011;19905;53.370;-6.314;2023-06-24T08:54:34;12.23;;;2.90;;
29934;SDS011;19905;53.370;-6.314;2023-06-24T08:57:07;10.65;;;2.50;;
29934;SDS011;19905;53.370;-6.314;2023-06-24T08:59:41;10.05;;;2.50;;
29934;SDS011;19905;53.370;-6.314;2023-06-24T09:02:10;7.57;;;2.63;;
29934;SDS011;19905;53.370;-6.314;2023-06-24T09:04:41;11.13;;;2.80;;
29934;SDS011;19905;53.370;-6.314;2023-06-24T09:07:10;10.20;;;2.88;;
29934;SDS011;19905;53.370;-6.314;2023-06-24T09:09:41;9.88;;;2.80;;
29934;SDS011;19905;53.370;-6.314;2023-06-24T09:12:14;8.55;;;2.60;;
29934;SDS011;19905;53.370;-6.314;2023-06-24T09:14:47;6.35;;;2.30;;
29934;SDS011;19905;53.370;-6.314;2023-06-24T09:17:21;9.68;;;2.55;;
29934;SDS011;19905;53.370;-6.314;2023-06-24T09:19:50;6.57;;;2.67;;
29934;SDS011;19905;53.370;-6.314;2023-06-24T09:22:20;7.28;;;2.80;;
29934;SDS011;19905;53.370;-6.314;2023-06-24T09:24:48;9.75;;;2.75;;
29934;SDS011;19905;53.370;-6.314;2023-06-24T09:27:18;10.35;;;2.97;;
29934;SDS011;19905;53.370;-6.314;2023-06-24T09:29:50;11.25;;;3.33;;
29934;SDS011;19905;53.370;-6.314;2023-06-24T09:32:19;12.80;;;3.33;;
29934;SDS011;19905;53.370;-6.314;2023-06-24T09:34:50;8.00;;;2.90;;
29934;SDS011;19905;53.370;-6.314;2023-06-24T09:37:23;9.77;;;3.10;;
29934;SDS011;19905;53.370;-6.314;2023-06-24T09:39:59;8.40;;;2.67;;
29934;SDS011;19905;53.370;-6.314;2023-06-24T09:42:33;9.85;;;3.25;;
29934;SDS011;19905;53.370;-6.314;2023-06-24T09:45:04;10.93;;;3.38;;
29934;SDS011;19905;53.370;-6.314;2023-06-24T09:47:33;13.55;;;3.60;;
29934;SDS011;19905;53.370;-6.314;2023-06-24T09:50:03;9.35;;;3.55;;
29934;SDS011;19905;53.370;-6.314;2023-06-24T09:52:32;13.05;;;3.78;;
29934;SDS011;19905;53.370;-6.314;2023-06-24T09:55:04;8.52;;;3.03;;
29934;SDS011;19905;53.370;-6.314;2023-06-24T09:57:37;8.52;;;3.10;;
29934;SDS011;19905;53.370;-6.314;2023-06-24T10:00:09;8.82;;;3.25;;
29934;SDS011;19905;53.370;-6.314;2023-06-24T10:02:45;9.50;;;3.00;;
29934;SDS011;19905;53.370;-6.314;2023-06-24T10:07:49;9.68;;;3.55;;
29934;SDS011;19905;53.370;-6.314;2023-06-24T10:10:21;10.70;;;3.75;;
29934;SDS011;19905;53.370;-6.314;2023-06-24T10:12:52;9.18;;;3.47;;
29934;SDS011;19905;53.370;-6.314;2023-06-24T10:15:22;7.55;;;3.17;;
29934;SDS011;19905;53.370;-6.314;2023-06-24T10:17:54;10.35;;;3.75;;
29934;SDS011;19905;53.370;-6.314;2023-06-24T10:20:41;9.90;;;3.92;;
29934;SDS011;19905;53.370;-6.314;2023-06-24T10:23:11;12.13;;;3.42;;
29934;SDS011;19905;53.370;-6.314;2023-06-24T10:25:42;13.95;;;3.85;;
29934;SDS011;19905;53.370;-6.314;2023-06-24T10:28:17;10.95;;;3.65;;
29934;SDS011;19905;53.370;-6.314;2023-06-24T10:30:54;7.45;;;3.22;;
29934;SDS011;19905;53.370;-6.314;2023-06-24T10:33:23;12.05;;;3.75;;
29934;SDS011;19905;53.370;-6.314;2023-06-24T10:35:52;10.52;;;3.60;;
29934;SDS011;19905;53.370;-6.314;2023-06-24T10:38:21;8.25;;;3.50;;
29934;SDS011;19905;53.370;-6.314;2023-06-24T10:40:56;12.30;;;3.83;;
29934;SDS011;19905;53.370;-6.314;2023-06-24T10:43:27;13.25;;;4.07;;
29934;SDS011;19905;53.370;-6.314;2023-06-24T10:45:57;10.75;;;3.63;;
29934;SDS011;19905;53.370;-6.314;2023-06-24T10:48:27;13.85;;;3.53;;
29934;SDS011;19905;53.370;-6.314;2023-06-24T10:50:56;10.35;;;3.95;;
29934;SDS011;19905;53.370;-6.314;2023-06-24T10:53:25;13.07;;;4.35;;
29934;SDS011;19905;53.370;-6.314;2023-06-24T10:55:57;11.63;;;4.15;;
29934;SDS011;19905;53.370;-6.314;2023-06-24T10:58:31;13.13;;;4.18;;
29934;SDS011;19905;53.370;-6.314;2023-06-24T11:01:06;13.40;;;4.00;;
29934;SDS011;19905;53.370;-6.314;2023-06-24T11:03:36;18.92;;;4.70;;
29934;SDS011;19905;53.370;-6.314;2023-06-24T11:06:11;15.52;;;4.75;;
29934;SDS011;19905;53.370;-6.314;2023-06-24T11:08:50;17.88;;;4.97;;
29934;SDS011;19905;53.370;-6.314;2023-06-24T11:11:22;13.63;;;4.30;;
29934;SDS011;19905;53.370;-6.314;2023-06-24T11:13:56;13.25;;;4.40;;
29934;SDS011;19905;53.370;-6.314;2023-06-24T11:16:26;14.93;;;4.22;;
29934;SDS011;19905;53.370;-6.314;2023-06-24T11:18:55;13.82;;;4.32;;
29934;SDS011;19905;53.370;-6.314;2023-06-24T11:21:28;10.95;;;4.20;;
29934;SDS011;19905;53.370;-6.314;2023-06-24T11:24:00;10.18;;;4.00;;
29934;SDS011;19905;53.370;-6.314;2023-06-24T11:26:31;16.60;;;4.35;;
29934;SDS011;19905;53.370;-6.314;2023-06-24T11:29:02;11.30;;;4.18;;
29934;SDS011;19905;53.370;-6.314;2023-06-24T11:31:40;15.10;;;4.38;;
29934;SDS011;19905;53.370;-6.314;2023-06-24T11:34:09;10.10;;;4.30;;
29934;SDS011;19905;53.370;-6.314;2023-06-24T11:36:38;13.93;;;4.05;;
29934;SDS011;19905;53.370;-6.314;2023-06-24T11:39:07;11.30;;;3.90;;
29934;SDS011;19905;53.370;-6.314;2023-06-24T11:41:39;11.57;;;4.20;;
29934;SDS011;19905;53.370;-6.314;2023-06-24T11:44:10;9.68;;;3.10;;
29934;SDS011;19905;53.370;-6.314;2023-06-24T11:46:39;14.32;;;3.72;;
29934;SDS011;19905;53.370;-6.314;2023-06-24T11:49:08;12.32;;;3.63;;
29934;SDS011;19905;53.370;-6.314;2023-06-24T11:51:38;10.43;;;3.53;;
29934;SDS011;19905;53.370;-6.314;2023-06-24T11:54:17;9.15;;;3.45;;
29934;SDS011;19905;53.370;-6.314;2023-06-24T11:56:49;9.82;;;3.30;;
29934;SDS011;19905;53.370;-6.314;2023-06-24T11:59:22;8.27;;;2.90;;
29934;SDS011;19905;53.370;-6.314;2023-06-24T12:01:53;11.18;;;3.63;;
29934;SDS011;19905;53.370;-6.314;2023-06-24T12:04:27;10.95;;;3.33;;
29934;SDS011;19905;53.370;-6.314;2023-06-24T12:07:00;7.97;;;3.35;;
29934;SDS011;19905;53.370;-6.314;2023-06-24T12:09:29;9.73;;;3.17;;
29934;SDS011;19905;53.370;-6.314;2023-06-24T12:11:58;9.45;;;3.25;;
29934;SDS011;19905;53.370;-6.314;2023-06-24T12:14:28;9.40;;;2.78;;
29934;SDS011;19905;53.370;-6.314;2023-06-24T12:16:57;9.10;;;2.88;;
29934;SDS011;19905;53.370;-6.314;2023-06-24T12:19:26;5.22;;;2.22;;
29934;SDS011;19905;53.370;-6.314;2023-06-24T12:21:56;8.40;;;2.55;;
29934;SDS011;19905;53.370;-6.314;2023-06-24T12:24:25;9.93;;;2.40;;
29934;SDS011;19905;53.370;-6.314;2023-06-24T12:26:55;5.82;;;2.05;;
29934;SDS011;19905;53.370;-6.314;2023-06-24T12:29:23;6.93;;;2.10;;
29934;SDS011;19905;53.370;-6.314;2023-06-24T12:31:54;5.85;;;2.38;;
29934;SDS011;19905;53.370;-6.314;2023-06-24T12:34:22;5.95;;;2.17;;
29934;SDS011;19905;53.370;-6.314;2023-06-24T12:36:51;6.60;;;2.40;;
29934;SDS011;19905;53.370;-6.314;2023-06-24T12:39:20;6.25;;;2.20;;
29934;SDS011;19905;53.370;-6.314;2023-06-24T12:41:49;5.47;;;2.10;;
29934;SDS011;19905;53.370;-6.314;2023-06-24T12:44:19;5.55;;;2.05;;
29934;SDS011;19905;53.370;-6.314;2023-06-24T12:46:48;4.82;;;2.05;;
29934;SDS011;19905;53.370;-6.314;2023-06-24T12:49:18;6.60;;;1.67;;
29934;SDS011;19905;53.370;-6.314;2023-06-24T12:51:47;5.00;;;2.17;;
29934;SDS011;19905;53.370;-6.314;2023-06-24T12:54:16;4.53;;;1.88;;
29934;SDS011;19905;53.370;-6.314;2023-06-24T12:56:44;4.38;;;1.60;;
29934;SDS011;19905;53.370;-6.314;2023-06-24T12:59:13;3.97;;;1.73;;
29934;SDS011;19905;53.370;-6.314;2023-06-24T13:01:41;6.45;;;1.77;;
29934;SDS011;19905;53.370;-6.314;2023-06-24T13:04:11;3.90;;;1.60;;
29934;SDS011;19905;53.370;-6.314;2023-06-24T13:06:41;4.90;;;1.80;;
29934;SDS011;19905;53.370;-6.314;2023-06-24T13:09:10;5.05;;;1.67;;
29934;SDS011;19905;53.370;-6.314;2023-06-24T13:11:41;6.03;;;1.60;;
29934;SDS011;19905;53.370;-6.314;2023-06-24T13:14:10;4.55;;;1.90;;
29934;SDS011;19905;53.370;-6.314;2023-06-24T13:16:40;5.38;;;1.70;;
29934;SDS011;19905;53.370;-6.314;2023-06-24T13:19:10;7.72;;;1.95;;
29934;SDS011;19905;53.370;-6.314;2023-06-24T13:21:43;5.20;;;2.00;;
29934;SDS011;19905;53.370;-6.314;2023-06-24T13:24:12;4.00;;;2.00;;
29934;SDS011;19905;53.370;-6.314;2023-06-24T13:26:41;4.05;;;1.80;;
29934;SDS011;19905;53.370;-6.314;2023-06-24T13:29:12;4.60;;;1.45;;
29934;SDS011;19905;53.370;-6.314;2023-06-24T13:31:41;3.75;;;1.75;;
29934;SDS011;19905;53.370;-6.314;2023-06-24T13:34:10;3.60;;;1.20;;
29934;SDS011;19905;53.370;-6.314;2023-06-24T13:36:39;7.15;;;1.30;;
29934;SDS011;19905;53.370;-6.314;2023-06-24T13:39:10;5.47;;;1.20;;
29934;SDS011;19905;53.370;-6.314;2023-06-24T13:41:41;3.78;;;1.08;;
29934;SDS011;19905;53.370;-6.314;2023-06-24T13:44:10;2.38;;;0.90;;
29934;SDS011;19905;53.370;-6.314;2023-06-24T13:46:40;2.40;;;1.20;;
29934;SDS011;19905;53.370;-6.314;2023-06-24T13:49:09;2.92;;;1.00;;
29934;SDS011;19905;53.370;-6.314;2023-06-24T13:51:39;2.70;;;1.00;;
29934;SDS011;19905;53.370;-6.314;2023-06-24T13:54:10;4.57;;;0.98;;
29934;SDS011;19905;53.370;-6.314;2023-06-24T13:56:39;2.22;;;1.10;;
29934;SDS011;19905;53.370;-6.314;2023-06-24T13:59:08;3.92;;;1.10;;
29934;SDS011;19905;53.370;-6.314;2023-06-24T14:01:38;3.92;;;0.82;;
29934;SDS011;19905;53.370;-6.314;2023-06-24T14:04:08;7.43;;;1.08;;
29934;SDS011;19905;53.370;-6.314;2023-06-24T14:06:37;2.55;;;1.15;;
29934;SDS011;19905;53.370;-6.314;2023-06-24T14:09:07;2.67;;;1.00;;
29934;SDS011;19905;53.370;-6.314;2023-06-24T14:11:37;1.83;;;1.00;;
29934;SDS011;19905;53.370;-6.314;2023-06-24T14:14:06;1.70;;;1.00;;
29934;SDS011;19905;53.370;-6.314;2023-06-24T14:16:36;2.92;;;1.00;;
29934;SDS011;19905;53.370;-6.314;2023-06-24T14:19:07;3.17;;;1.13;;
29934;SDS011;19905;53.370;-6.314;2023-06-24T14:21:36;1.83;;;1.00;;
29934;SDS011;19905;53.370;-6.314;2023-06-24T14:24:05;2.85;;;0.90;;
29934;SDS011;19905;53.370;-6.314;2023-06-24T14:26:43;2.05;;;0.80;;
29934;SDS011;19905;53.370;-6.314;2023-06-24T14:29:17;2.78;;;0.90;;
29934;SDS011;19905;53.370;-6.314;2023-06-24T14:31:47;5.03;;;0.93;;
29934;SDS011;19905;53.370;-6.314;2023-06-24T14:34:16;3.83;;;1.00;;
29934;SDS011;19905;53.370;-6.314;2023-06-24T14:36:47;2.22;;;0.90;;
29934;SDS011;19905;53.370;-6.314;2023-06-24T14:39:17;2.97;;;1.00;;
29934;SDS011;19905;53.370;-6.314;2023-06-24T14:41:48;2.88;;;0.90;;
29934;SDS011;19905;53.370;-6.314;2023-06-24T14:44:17;1.80;;;0.90;;
29934;SDS011;19905;53.370;-6.314;2023-06-24T14:46:56;1.15;;;0.63;;
29934;SDS011;19905;53.370;-6.314;2023-06-24T14:49:25;2.35;;;0.75;;
29934;SDS011;19905;53.370;-6.314;2023-06-24T14:51:54;4.78;;;0.90;;
29934;SDS011;19905;53.370;-6.314;2023-06-24T14:54:30;5.47;;;0.95;;